Time;durP1;ratioP1;P1;durP2;ratioP2;P2;SDS_P1;SDS_P2;PMS_P1;PMS_P2;Temp;Humidity;BMP_temperature;BMP_pressure;BME280_temperature;BME280_humidity;BME280_pressure;Samples;Min_cycle;Max_cycle;Signal;HPM_P1;HPM_P2
2022/07/19 00:00:54;;;;;;;;;;;18.90;99.90;;;;;;5006590;28;20383;-81
2022/07/19 00:03:21;;;;;;;;;;;18.90;99.90;;;;;;5023923;28;19964;-82
2022/07/19 00:05:46;;;;;;;;;;;18.90;99.90;;;;;;5003472;28;19965;-82
2022/07/19 00:08:12;;;;;;;;;;;18.90;99.90;;;;;;4988476;28;20336;-81
2022/07/19 00:10:38;;;;;;;;;;;18.90;99.90;;;;;;4985347;28;20016;-82
2022/07/19 00:13:04;;;;;;;;;;;18.80;99.90;;;;;;5019177;28;19933;-81
2022/07/19 00:15:29;;;;;;;;;;;18.80;99.90;;;;;;5016052;28;19925;-81
2022/07/19 00:17:55;;;;;;;;;;;18.80;99.90;;;;;;4983787;28;20031;-82
2022/07/19 00:20:21;;;;;;;;;;;18.80;99.90;;;;;;4985205;28;19952;-82
2022/07/19 00:22:47;;;;;;;;;;;18.80;99.90;;;;;;4999656;28;19931;-81
2022/07/19 00:25:13;;;;;;;;;;;18.80;99.90;;;;;;4978075;28;20020;-81
2022/07/19 00:27:40;;;;;;;;;;;18.70;99.90;;;;;;4994736;28;19930;-81
2022/07/19 00:30:07;;;;;;;;;;;18.70;99.90;;;;;;4995217;28;19965;-81
2022/07/19 00:32:32;;;;;;;;;;;18.70;99.90;;;;;;4993486;28;19925;-82
2022/07/19 00:34:58;;;;;;;;;;;18.70;99.90;;;;;;5014607;28;19944;-81
2022/07/19 00:37:24;;;;;;;;;;;18.70;99.90;;;;;;4998541;28;19925;-84
2022/07/19 00:39:50;;;;;;;;;;;18.70;99.90;;;;;;5026509;28;20534;-81
2022/07/19 00:42:17;;;;;;;;;;;18.60;99.90;;;;;;5009760;28;20447;-81
2022/07/19 00:44:42;;;;;;;;;;;18.70;99.90;;;;;;5002457;28;19925;-85
2022/07/19 00:47:08;;;;;;;;;;;18.70;99.90;;;;;;4995747;28;19925;-81
2022/07/19 00:49:34;;;;;;;;;;;18.70;99.90;;;;;;5007162;28;19976;-80
2022/07/19 00:52:01;;;;;;;;;;;18.70;99.90;;;;;;5008330;28;20002;-81
2022/07/19 00:54:27;;;;;;;;;;;18.60;99.90;;;;;;4980790;28;20008;-82
2022/07/19 00:56:53;;;;;;;;;;;18.60;99.90;;;;;;5001789;28;19932;-81
2022/07/19 00:59:19;;;;;;;;;;;18.60;99.90;;;;;;4992923;28;19925;-80
2022/07/19 01:01:45;;;;;;;;;;;18.70;99.90;;;;;;4977596;28;19934;-82
2022/07/19 01:04:11;;;;;;;;;;;18.60;99.90;;;;;;4994837;28;19929;-83
2022/07/19 01:06:37;;;;;;;;;;;18.60;99.90;;;;;;4990815;28;19925;-82
2022/07/19 01:09:03;;;;;;;;;;;18.60;99.90;;;;;;4991660;28;20393;-82
2022/07/19 01:11:29;;;;;;;;;;;18.60;99.90;;;;;;4995555;28;19951;-85
2022/07/19 01:13:55;;;;;;;;;;;18.60;99.90;;;;;;4997500;28;19934;-82
2022/07/19 01:16:22;;;;;;;;;;;18.60;99.90;;;;;;4962490;28;19933;-82
2022/07/19 01:18:49;;;;;;;;;;;18.50;99.90;;;;;;4999569;28;19931;-82
2022/07/19 01:21:22;;;;;;;;;;;18.50;99.90;;;;;;4987669;28;19934;-82
2022/07/19 01:23:48;;;;;;;;;;;18.50;99.90;;;;;;4986693;28;19931;-82
2022/07/19 01:26:15;;;;;;;;;;;18.50;99.90;;;;;;5000006;28;19930;-82
2022/07/19 01:28:41;;;;;;;;;;;18.50;99.90;;;;;;4990826;28;19940;-82
2022/07/19 01:31:06;;;;;;;;;;;18.40;99.90;;;;;;4998371;28;19929;-84
2022/07/19 01:33:37;;;;;;;;;;;18.40;99.90;;;;;;4989939;28;19932;-84
2022/07/19 01:36:03;;;;;;;;;;;18.40;99.90;;;;;;4992067;28;19925;-84
2022/07/19 01:38:29;;;;;;;;;;;18.40;99.90;;;;;;4990562;28;20391;-83
2022/07/19 01:40:57;;;;;;;;;;;18.30;99.90;;;;;;5000066;28;19933;-81
2022/07/19 01:43:23;;;;;;;;;;;18.30;99.90;;;;;;5007052;28;19935;-84
2022/07/19 01:45:48;;;;;;;;;;;18.30;99.90;;;;;;4978536;28;19925;-84
2022/07/19 01:48:14;;;;;;;;;;;18.30;99.90;;;;;;4973003;28;20371;-82
2022/07/19 01:50:40;;;;;;;;;;;18.20;99.90;;;;;;4993202;28;19929;-82
2022/07/19 01:53:06;;;;;;;;;;;18.20;99.90;;;;;;4998127;28;19934;-82
2022/07/19 01:55:32;;;;;;;;;;;18.10;99.90;;;;;;5000812;28;20398;-83
2022/07/19 01:57:57;;;;;;;;;;;18.10;99.90;;;;;;4978544;28;19933;-83
2022/07/19 02:00:23;;;;;;;;;;;18.00;99.90;;;;;;4991350;28;19925;-83
2022/07/19 02:02:49;;;;;;;;;;;18.00;99.90;;;;;;4967429;28;19973;-81
2022/07/19 02:14:21;;;;;;;;;;;17.90;99.90;;;;;;5065417;28;20371;-84
2022/07/19 02:16:47;;;;;;;;;;;17.90;99.90;;;;;;5007765;28;19929;-81
2022/07/19 02:19:21;;;;;;;;;;;17.90;99.90;;;;;;5005541;28;19920;-83
2022/07/19 02:21:51;;;;;;;;;;;17.80;99.90;;;;;;5035277;28;19932;-81
2022/07/19 02:24:17;;;;;;;;;;;17.80;99.90;;;;;;5018016;28;20020;-81
2022/07/19 02:26:53;;;;;;;;;;;17.80;99.90;;;;;;5046066;28;19940;-82
2022/07/19 02:29:21;;;;;;;;;;;17.70;99.90;;;;;;5056204;28;19925;-82
2022/07/19 02:31:47;;;;;;;;;;;17.70;99.90;;;;;;5030830;28;19986;-83
2022/07/19 02:34:13;;;;;;;;;;;17.70;99.90;;;;;;5033933;28;19929;-82
2022/07/19 02:36:39;;;;;;;;;;;17.60;99.90;;;;;;5027740;28;20002;-82
2022/07/19 02:39:06;;;;;;;;;;;17.60;99.90;;;;;;5030446;28;19925;-81
2022/07/19 02:45:11;;;;;;;;;;;17.50;99.90;;;;;;5043099;28;19931;-81
2022/07/19 02:48:17;;;;;;;;;;;17.40;99.90;;;;;;5042871;28;19931;-81
2022/07/19 02:50:43;;;;;;;;;;;17.40;99.90;;;;;;5043325;28;19924;-81
2022/07/19 02:53:37;;;;;;;;;;;17.30;99.90;;;;;;5029266;28;19925;-81
2022/07/19 02:56:04;;;;;;;;;;;17.60;99.90;;;;;;5035118;28;20429;-82
2022/07/19 02:58:29;;;;;;;;;;;17.20;99.90;;;;;;5040418;28;19936;-81
2022/07/19 03:00:55;;;;;;;;;;;17.20;99.90;;;;;;5012481;28;19928;-81
2022/07/19 03:06:13;;;;;;;;;;;17.20;99.90;;;;;;5053094;28;19982;-82
2022/07/19 03:08:39;;;;;;;;;;;17.30;99.90;;;;;;5044795;28;19968;-81
2022/07/19 03:11:05;;;;;;;;;;;17.30;99.90;;;;;;5044727;28;19971;-82
2022/07/19 03:13:30;;;;;;;;;;;17.30;99.90;;;;;;5038074;28;20272;-83
2022/07/19 03:15:57;;;;;;;;;;;17.30;99.90;;;;;;5119523;23;19924;-83
2022/07/19 03:18:22;;;;;;;;;;;17.20;99.90;;;;;;5033878;28;19931;-82
2022/07/19 03:20:48;;;;;;;;;;;17.20;99.90;;;;;;5029504;28;19929;-82
2022/07/19 03:23:14;;;;;;;;;;;17.20;99.90;;;;;;5379357;22;19911;-81
2022/07/19 03:26:08;;;;;;;;;;;17.20;99.90;;;;;;5023834;28;20149;-82
2022/07/19 03:28:34;;;;;;;;;;;17.20;99.90;;;;;;5033112;28;20290;-82
2022/07/19 03:31:12;;;;;;;;;;;17.20;99.90;;;;;;5027925;28;19924;-82
2022/07/19 03:33:38;;;;;;;;;;;17.20;99.90;;;;;;5050647;28;19935;-81
2022/07/19 03:36:16;;;;;;;;;;;17.10;99.90;;;;;;5036060;23;19924;-82
2022/07/19 03:39:03;;;;;;;;;;;17.00;99.90;;;;;;5012282;28;20723;-82
2022/07/19 03:41:29;;;;;;;;;;;17.10;99.90;;;;;;5034571;28;19928;-84
2022/07/19 03:43:55;;;;;;;;;;;17.10;99.90;;;;;;5044460;28;20293;-82
2022/07/19 03:46:21;;;;;;;;;;;17.10;99.90;;;;;;5036720;28;20183;-82
2022/07/19 03:48:47;;;;;;;;;;;17.10;99.90;;;;;;5041611;28;19925;-82
2022/07/19 03:51:13;;;;;;;;;;;16.90;99.90;;;;;;5042108;28;19932;-82
2022/07/19 03:53:39;;;;;;;;;;;17.00;99.90;;;;;;5025653;28;19928;-81
2022/07/19 03:56:27;;;;;;;;;;;17.10;99.90;;;;;;5028340;28;19936;-80
2022/07/19 03:59:14;;;;;;;;;;;17.10;99.90;;;;;;5031635;28;20003;-81
2022/07/19 04:05:27;;;;;;;;;;;17.10;99.90;;;;;;5037082;28;19936;-83
2022/07/19 04:07:55;;;;;;;;;;;17.10;99.90;;;;;;5029290;28;20332;-83
2022/07/19 04:10:21;;;;;;;;;;;17.10;99.90;;;;;;5044022;28;19924;-83
2022/07/19 04:13:00;;;;;;;;;;;17.20;99.90;;;;;;5037965;28;19929;-82
2022/07/19 04:15:26;;;;;;;;;;;17.20;99.90;;;;;;5011679;28;19927;-83
2022/07/19 04:17:52;;;;;;;;;;;17.20;99.90;;;;;;5025977;28;20330;-82
2022/07/19 04:20:18;;;;;;;;;;;17.20;99.90;;;;;;5040782;28;19920;-81
2022/07/19 04:22:47;;;;;;;;;;;17.20;99.90;;;;;;5066525;23;19955;-81
2022/07/19 04:25:38;;;;;;;;;;;17.20;99.90;;;;;;5060745;28;19931;-80
2022/07/19 04:28:05;;;;;;;;;;;17.00;99.90;;;;;;5051188;28;19927;-81
2022/07/19 04:30:40;;;;;;;;;;;17.30;99.90;;;;;;5067650;28;19928;-82
2022/07/19 04:38:45;;;;;;;;;;;17.30;99.90;;;;;;5063669;28;20041;-82
2022/07/19 04:41:14;;;;;;;;;;;17.40;99.90;;;;;;5064728;28;19988;-81
2022/07/19 04:43:41;;;;;;;;;;;17.30;99.90;;;;;;5059180;28;19928;-81
2022/07/19 04:46:07;;;;;;;;;;;17.40;99.90;;;;;;5046713;28;19931;-82
2022/07/19 04:48:34;;;;;;;;;;;17.40;99.90;;;;;;5064580;28;20024;-81
2022/07/19 04:50:59;;;;;;;;;;;17.50;99.90;;;;;;5064165;28;20373;-80
2022/07/19 04:56:31;;;;;;;;;;;17.40;99.90;;;;;;5068096;28;19982;-81
2022/07/19 04:59:10;;;;;;;;;;;17.50;99.90;;;;;;5050877;28;19932;-80
2022/07/19 05:01:36;;;;;;;;;;;17.60;99.90;;;;;;5034011;28;20016;-80
2022/07/19 05:04:02;;;;;;;;;;;17.60;99.90;;;;;;5028642;28;20501;-82
2022/07/19 05:06:31;;;;;;;;;;;17.70;99.90;;;;;;5065770;28;19931;-80
2022/07/19 05:08:59;;;;;;;;;;;17.60;99.90;;;;;;5061785;28;20061;-81
2022/07/19 05:11:42;;;;;;;;;;;17.90;99.90;;;;;;5048930;28;20467;-81
2022/07/19 05:14:08;;;;;;;;;;;17.90;99.90;;;;;;5109405;22;20016;-82
2022/07/19 05:16:34;;;;;;;;;;;18.00;99.90;;;;;;5027405;28;20381;-82
2022/07/19 05:19:03;;;;;;;;;;;18.00;99.90;;;;;;5027702;28;20014;-82
2022/07/19 05:25:07;;;;;;;;;;;18.10;99.90;;;;;;5045551;28;19925;-83
2022/07/19 05:30:08;;;;;;;;;;;18.30;99.90;;;;;;5080174;23;19935;-81
2022/07/19 05:32:59;;;;;;;;;;;18.40;99.90;;;;;;5027252;28;19931;-81
2022/07/19 05:35:33;;;;;;;;;;;18.30;99.90;;;;;;5029602;28;20524;-81
2022/07/19 05:38:12;;;;;;;;;;;18.50;99.90;;;;;;5060759;22;19936;-81
2022/07/19 05:40:39;;;;;;;;;;;18.50;99.90;;;;;;5119429;22;19924;-81
2022/07/19 05:43:05;;;;;;;;;;;18.60;99.90;;;;;;5009585;28;19937;-81
2022/07/19 05:45:31;;;;;;;;;;;18.70;99.90;;;;;;5045312;28;20394;-80
2022/07/19 05:48:00;;;;;;;;;;;18.90;99.90;;;;;;5126124;23;19932;-81
2022/07/19 05:52:51;;;;;;;;;;;19.00;99.90;;;;;;5306756;22;20011;-82
2022/07/19 05:55:20;;;;;;;;;;;19.10;99.90;;;;;;5052302;28;20400;-82
2022/07/19 05:57:46;;;;;;;;;;;19.30;99.90;;;;;;5048780;28;20412;-82
2022/07/19 06:03:51;;;;;;;;;;;19.50;99.90;;;;;;5069729;28;20444;-83
2022/07/19 06:06:41;;;;;;;;;;;19.70;99.90;;;;;;5071912;28;19926;-83
2022/07/19 06:09:12;;;;;;;;;;;20.00;99.90;;;;;;5044189;28;19928;-83
2022/07/19 06:11:54;;;;;;;;;;;20.50;99.90;;;;;;5037849;28;19924;-84
2022/07/19 06:14:29;;;;;;;;;;;21.20;99.90;;;;;;5072928;28;19924;-83
2022/07/19 06:17:13;;;;;;;;;;;21.90;99.90;;;;;;5058690;28;19972;-81
2022/07/19 06:20:06;;;;;;;;;;;22.40;99.90;;;;;;5064385;28;19951;-83
2022/07/19 06:22:33;;;;;;;;;;;22.60;99.90;;;;;;5055268;28;19924;-84
2022/07/19 06:25:00;;;;;;;;;;;22.60;99.90;;;;;;5069625;28;19912;-84
2022/07/19 06:33:01;;;;;;;;;;;22.70;99.90;;;;;;5025806;28;19935;-84
2022/07/19 06:37:55;;;;;;;;;;;22.70;99.90;;;;;;5233311;22;19928;-85
2022/07/19 06:40:21;;;;;;;;;;;22.70;99.90;;;;;;5038648;28;19936;-81
2022/07/19 06:42:47;;;;;;;;;;;22.70;99.90;;;;;;5047707;28;19943;-80
2022/07/19 06:45:13;;;;;;;;;;;22.80;99.90;;;;;;5045956;28;19925;-85
2022/07/19 06:48:01;;;;;;;;;;;23.10;99.90;;;;;;5046644;28;20014;-84
2022/07/19 06:50:39;;;;;;;;;;;23.30;99.90;;;;;;5015603;28;19924;-86
2022/07/19 06:53:05;;;;;;;;;;;24.30;99.90;;;;;;5024230;28;19947;-82
2022/07/19 06:55:49;;;;;;;;;;;25.10;99.90;;;;;;5065853;28;20446;-85
2022/07/19 06:58:15;;;;;;;;;;;25.80;99.90;;;;;;5045119;28;19924;-85
2022/07/19 07:00:41;;;;;;;;;;;26.20;99.90;;;;;;5051452;28;20392;-82
2022/07/19 07:03:07;;;;;;;;;;;26.30;99.90;;;;;;5046805;28;19983;-84
2022/07/19 07:05:33;;;;;;;;;;;26.90;99.90;;;;;;5031018;28;19938;-81
2022/07/19 07:07:59;;;;;;;;;;;27.10;99.90;;;;;;5124247;23;19932;-85
2022/07/19 07:10:39;;;;;;;;;;;27.80;99.90;;;;;;5076095;28;19925;-84
2022/07/19 07:13:05;;;;;;;;;;;27.90;99.90;;;;;;5039402;28;20513;-84
2022/07/19 07:15:31;;;;;;;;;;;27.90;99.90;;;;;;5028043;28;19936;-86
2022/07/19 07:17:58;;;;;;;;;;;28.10;99.90;;;;;;5023386;28;19959;-83
2022/07/19 07:20:25;;;;;;;;;;;28.50;99.80;;;;;;5078179;28;20023;-83
2022/07/19 07:22:57;;;;;;;;;;;29.00;98.10;;;;;;5062717;28;19982;-84
2022/07/19 07:25:35;;;;;;;;;;;29.40;95.60;;;;;;5045906;28;19935;-85
2022/07/19 07:28:01;;;;;;;;;;;29.60;92.80;;;;;;5074904;28;19955;-85
2022/07/19 07:30:28;;;;;;;;;;;29.90;89.40;;;;;;5044916;28;19931;-85
2022/07/19 07:32:54;;;;;;;;;;;30.20;90.40;;;;;;5043371;28;19928;-85
2022/07/19 07:35:49;;;;;;;;;;;30.70;86.60;;;;;;5077469;28;19936;-82
2022/07/19 07:38:40;;;;;;;;;;;30.70;88.90;;;;;;5004694;28;20484;-82
2022/07/19 07:41:08;;;;;;;;;;;30.70;84.60;;;;;;5188137;22;19936;-84
2022/07/19 07:43:35;;;;;;;;;;;30.80;84.10;;;;;;5024006;28;19925;-83
2022/07/19 07:46:34;;;;;;;;;;;31.00;82.20;;;;;;5005039;28;19929;-83
2022/07/19 07:49:21;;;;;;;;;;;31.40;83.20;;;;;;5020957;28;20449;-86
2022/07/19 07:55:38;;;;;;;;;;;32.10;78.80;;;;;;5004353;28;20335;-82
2022/07/19 08:01:52;;;;;;;;;;;32.40;77.80;;;;;;5013549;28;19940;-83
2022/07/19 08:04:33;;;;;;;;;;;32.60;76.70;;;;;;5003269;28;20395;-85
2022/07/19 08:06:59;;;;;;;;;;;32.90;75.00;;;;;;5019814;28;19929;-83
2022/07/19 08:09:44;;;;;;;;;;;33.20;73.60;;;;;;5010081;28;20375;-86
2022/07/19 08:12:24;;;;;;;;;;;33.50;74.20;;;;;;5009830;28;19925;-82
2022/07/19 08:18:32;;;;;;;;;;;33.60;72.50;;;;;;5026594;28;19929;-84
2022/07/19 08:27:10;;;;;;;;;;;34.10;70.60;;;;;;5050879;28;19975;-82
2022/07/19 08:29:54;;;;;;;;;;;34.00;67.60;;;;;;5016851;28;19956;-82
2022/07/19 08:32:20;;;;;;;;;;;34.00;68.40;;;;;;5024717;28;19964;-83
2022/07/19 08:34:46;;;;;;;;;;;34.20;66.40;;;;;;5028403;28;20362;-85
2022/07/19 08:37:12;;;;;;;;;;;34.40;66.90;;;;;;5032134;28;19935;-86
2022/07/19 08:39:38;;;;;;;;;;;34.60;66.10;;;;;;5030992;28;19956;-84
2022/07/19 08:42:05;;;;;;;;;;;34.50;65.10;;;;;;5033292;28;20371;-86
2022/07/19 08:44:34;;;;;;;;;;;34.20;62.30;;;;;;5015490;28;19935;-82
2022/07/19 08:47:01;;;;;;;;;;;33.90;63.60;;;;;;5013129;28;19925;-86
2022/07/19 08:49:26;;;;;;;;;;;33.70;60.70;;;;;;5013592;28;20284;-82
2022/07/19 08:51:52;;;;;;;;;;;33.90;62.30;;;;;;5015546;28;20145;-84
2022/07/19 08:54:19;;;;;;;;;;;34.10;64.40;;;;;;5015204;28;19933;-87
2022/07/19 08:59:31;;;;;;;;;;;34.40;62.60;;;;;;5032900;28;19929;-83
2022/07/19 09:01:56;;;;;;;;;;;34.60;63.20;;;;;;5001173;28;19983;-82
2022/07/19 09:04:28;;;;;;;;;;;34.50;59.90;;;;;;4999315;28;20008;-86
2022/07/19 09:06:56;;;;;;;;;;;34.60;64.00;;;;;;5034788;28;19925;-83
2022/07/19 09:09:24;;;;;;;;;;;34.50;61.30;;;;;;5014915;28;19925;-85
2022/07/19 09:11:51;;;;;;;;;;;34.50;61.70;;;;;;5032624;28;19925;-85
2022/07/19 09:14:36;;;;;;;;;;;34.50;63.60;;;;;;5010458;28;19976;-86
2022/07/19 09:17:03;;;;;;;;;;;34.40;63.20;;;;;;5028694;28;20010;-82
2022/07/19 09:19:31;;;;;;;;;;;34.40;63.70;;;;;;5036268;28;20471;-82
2022/07/19 09:22:01;;;;;;;;;;;34.30;62.60;;;;;;5033889;28;19986;-82
2022/07/19 09:24:46;;;;;;;;;;;34.10;63.10;;;;;;5009355;28;19932;-84
2022/07/19 09:27:13;;;;;;;;;;;34.00;63.60;;;;;;5008376;28;20004;-85
2022/07/19 09:29:40;;;;;;;;;;;33.90;67.30;;;;;;4978125;28;20403;-81
2022/07/19 09:32:07;;;;;;;;;;;33.80;65.80;;;;;;4995919;28;19938;-84
2022/07/19 09:34:39;;;;;;;;;;;33.70;63.10;;;;;;5010079;28;19933;-84
2022/07/19 09:37:12;;;;;;;;;;;33.60;64.60;;;;;;5010216;28;19976;-82
2022/07/19 09:39:41;;;;;;;;;;;33.60;65.20;;;;;;5012213;28;19926;-82
2022/07/19 09:42:10;;;;;;;;;;;33.70;65.40;;;;;;5014270;28;19964;-83
2022/07/19 09:44:38;;;;;;;;;;;33.60;63.40;;;;;;5017672;28;20532;-81
2022/07/19 09:47:06;;;;;;;;;;;33.70;66.40;;;;;;4980308;28;19925;-89
2022/07/19 09:49:32;;;;;;;;;;;33.80;66.00;;;;;;4998941;28;19964;-82
2022/07/19 09:52:00;;;;;;;;;;;33.90;64.80;;;;;;4997608;28;19936;-85
2022/07/19 09:54:29;;;;;;;;;;;33.90;63.90;;;;;;4978214;28;20021;-83
2022/07/19 09:57:13;;;;;;;;;;;33.90;64.70;;;;;;4983721;28;19992;-86
2022/07/19 09:59:45;;;;;;;;;;;33.90;65.00;;;;;;4995212;28;19929;-83
2022/07/19 10:02:12;;;;;;;;;;;34.00;61.20;;;;;;4994794;28;19929;-81
2022/07/19 10:07:50;;;;;;;;;;;34.20;64.00;;;;;;5008512;28;19979;-86
2022/07/19 10:13:23;;;;;;;;;;;34.50;64.00;;;;;;5007641;28;19981;-84
2022/07/19 10:22:08;;;;;;;;;;;34.70;61.70;;;;;;5108202;22;20668;-82
2022/07/19 10:25:01;;;;;;;;;;;34.90;61.90;;;;;;5047201;28;20386;-86
2022/07/19 10:27:45;;;;;;;;;;;35.00;61.20;;;;;;5016487;28;20390;-89
2022/07/19 10:30:12;;;;;;;;;;;34.90;57.90;;;;;;5055753;28;19947;-82
2022/07/19 10:32:57;;;;;;;;;;;35.00;60.60;;;;;;5071587;28;19928;-82
2022/07/19 10:35:29;;;;;;;;;;;35.10;59.00;;;;;;5068766;28;19924;-84
2022/07/19 10:38:09;;;;;;;;;;;35.20;59.20;;;;;;5059055;22;20391;-83
2022/07/19 10:40:58;;;;;;;;;;;35.30;57.50;;;;;;5034939;28;19932;-84
2022/07/19 10:45:59;;;;;;;;;;;35.40;57.30;;;;;;5089222;28;20418;-79
2022/07/19 10:48:37;;;;;;;;;;;35.40;58.10;;;;;;5072357;28;19932;-80
2022/07/19 10:51:22;;;;;;;;;;;35.50;58.70;;;;;;5072279;28;19978;-83
2022/07/19 10:54:02;;;;;;;;;;;35.70;57.10;;;;;;5048664;28;19947;-88
2022/07/19 10:56:46;;;;;;;;;;;35.80;58.90;;;;;;5073311;28;19925;-82
2022/07/19 10:59:12;;;;;;;;;;;35.90;56.80;;;;;;5048280;28;19935;-82
2022/07/19 11:02:01;;;;;;;;;;;35.90;54.90;;;;;;5072734;28;19924;-84
2022/07/19 11:04:29;;;;;;;;;;;35.90;55.40;;;;;;5070359;28;20398;-84
2022/07/19 11:07:15;;;;;;;;;;;36.00;53.00;;;;;;5071842;28;20018;-82
2022/07/19 11:27:25;;;;;;;;;;;36.10;52.80;;;;;;5033202;28;20379;-83
2022/07/19 11:29:53;;;;;;;;;;;36.20;53.20;;;;;;5003610;28;20027;-83
2022/07/19 11:32:20;;;;;;;;;;;36.20;52.30;;;;;;5003966;28;20028;-86
2022/07/19 11:38:15;;;;;;;;;;;36.30;53.40;;;;;;4792681;22;21899;-83
2022/07/19 11:40:42;;;;;;;;;;;36.20;53.10;;;;;;5019157;28;20307;-84
2022/07/19 11:43:26;;;;;;;;;;;36.20;52.50;;;;;;4979227;28;20368;-86
2022/07/19 11:45:52;;;;;;;;;;;36.10;51.70;;;;;;5001573;28;20519;-85
2022/07/19 12:18:43;;;;;;;;;;;35.50;51.30;;;;;;5039528;28;19975;-88
2022/07/19 12:21:19;;;;;;;;;;;35.40;50.00;;;;;;5015921;28;19936;-89
2022/07/19 12:24:03;;;;;;;;;;;35.40;50.80;;;;;;5003822;28;19952;-85
2022/07/19 12:26:29;;;;;;;;;;;35.40;50.60;;;;;;5020402;28;19925;-82
2022/07/19 12:28:55;;;;;;;;;;;35.30;51.90;;;;;;4999245;28;20272;-81
2022/07/19 12:31:22;;;;;;;;;;;35.30;51.40;;;;;;5015133;28;19960;-82
2022/07/19 12:34:04;;;;;;;;;;;35.20;50.00;;;;;;5006887;28;19936;-82
2022/07/19 12:36:49;;;;;;;;;;;35.20;52.10;;;;;;5003322;28;19926;-83
2022/07/19 12:39:19;;;;;;;;;;;35.10;49.60;;;;;;5019824;28;19971;-86
2022/07/19 12:42:04;;;;;;;;;;;35.00;50.60;;;;;;4985338;28;20028;-85
2022/07/19 12:44:31;;;;;;;;;;;34.90;51.50;;;;;;5020716;28;19933;-80
2022/07/19 12:46:59;;;;;;;;;;;34.90;51.80;;;;;;5002025;28;19925;-83
2022/07/19 12:49:40;;;;;;;;;;;34.80;51.40;;;;;;4981361;28;19930;-85
2022/07/19 12:52:07;;;;;;;;;;;34.80;51.90;;;;;;5005559;28;19928;-85
2022/07/19 12:54:34;;;;;;;;;;;34.70;52.60;;;;;;5002016;28;20011;-84
2022/07/19 12:57:00;;;;;;;;;;;34.70;51.20;;;;;;5000514;28;19929;-83
2022/07/19 13:02:53;;;;;;;;;;;34.60;53.00;;;;;;5046143;23;19970;-84
2022/07/19 13:05:20;;;;;;;;;;;34.50;53.30;;;;;;4994946;28;19933;-89
2022/07/19 13:07:54;;;;;;;;;;;34.50;52.20;;;;;;5025801;28;19965;-83
2022/07/19 13:10:22;;;;;;;;;;;34.40;52.10;;;;;;5007470;28;19936;-84
2022/07/19 13:12:50;;;;;;;;;;;34.40;51.90;;;;;;5015734;28;19929;-87
2022/07/19 13:15:16;;;;;;;;;;;34.40;51.00;;;;;;5019327;28;20389;-82
2022/07/19 13:17:43;;;;;;;;;;;34.40;49.90;;;;;;5015486;28;19932;-86
2022/07/19 13:26:42;;;;;;;;;;;34.30;51.10;;;;;;2889531;22;19932;-83
2022/07/19 13:29:12;;;;;;;;;;;34.20;51.40;;;;;;5025608;28;19979;-86
2022/07/19 13:31:39;;;;;;;;;;;34.20;52.70;;;;;;5029219;28;20525;-86
2022/07/19 13:34:05;;;;;;;;;;;34.10;51.80;;;;;;5026647;28;19955;-86
2022/07/19 13:36:31;;;;;;;;;;;34.10;52.40;;;;;;5003448;28;19933;-86
2022/07/19 13:38:59;;;;;;;;;;;34.10;52.50;;;;;;5037905;28;19940;-89
2022/07/19 13:41:44;;;;;;;;;;;34.10;52.50;;;;;;4999205;28;20363;-83
2022/07/19 13:44:12;;;;;;;;;;;34.10;53.50;;;;;;5029549;28;19935;-85
2022/07/19 13:46:39;;;;;;;;;;;34.10;52.70;;;;;;4996053;28;19925;-87
2022/07/19 13:49:05;;;;;;;;;;;34.10;53.80;;;;;;5008033;28;19935;-87
2022/07/19 13:51:38;;;;;;;;;;;34.10;53.30;;;;;;4997671;28;19994;-81
2022/07/19 13:54:23;;;;;;;;;;;34.10;51.70;;;;;;5027210;28;19975;-86
2022/07/19 14:24:21;;;;;;;;;;;33.90;51.40;;;;;;4897187;22;20017;-83
2022/07/19 14:48:18;;;;;;;;;;;33.90;51.60;;;;;;5032598;28;19925;-84
2022/07/19 14:50:44;;;;;;;;;;;33.90;50.70;;;;;;5022183;28;19940;-86
2022/07/19 14:53:11;;;;;;;;;;;33.90;51.30;;;;;;4997761;28;19928;-80
2022/07/19 14:55:37;;;;;;;;;;;33.90;51.30;;;;;;5000364;28;20016;-87
2022/07/19 14:58:03;;;;;;;;;;;33.80;51.30;;;;;;5018445;28;20067;-86
2022/07/19 15:00:30;;;;;;;;;;;33.80;51.70;;;;;;5018659;28;19929;-83
2022/07/19 15:02:56;;;;;;;;;;;33.80;49.50;;;;;;5020883;28;20033;-84
2022/07/19 15:05:24;;;;;;;;;;;33.80;50.00;;;;;;4981500;28;20000;-83
2022/07/19 15:07:50;;;;;;;;;;;33.80;51.30;;;;;;5015158;28;20283;-80
2022/07/19 15:10:16;;;;;;;;;;;33.80;51.40;;;;;;4995768;28;19933;-80
2022/07/19 15:12:41;;;;;;;;;;;33.80;51.70;;;;;;5000052;28;19933;-83
2022/07/19 15:15:08;;;;;;;;;;;33.80;51.50;;;;;;5020468;28;19925;-81
2022/07/19 15:17:34;;;;;;;;;;;33.80;51.80;;;;;;5020189;28;19933;-85
2022/07/19 15:20:00;;;;;;;;;;;33.80;51.00;;;;;;4983643;28;20514;-84
2022/07/19 15:22:46;;;;;;;;;;;33.80;50.10;;;;;;5016274;28;20387;-84
2022/07/19 15:42:05;;;;;;;;;;;33.70;51.20;;;;;;5054279;28;20019;-80
2022/07/19 15:44:33;;;;;;;;;;;33.60;52.30;;;;;;5036785;28;20004;-84
2022/07/19 15:46:59;;;;;;;;;;;33.70;51.20;;;;;;5013386;28;19928;-85
2022/07/19 15:49:30;;;;;;;;;;;33.70;50.10;;;;;;5035130;28;19986;-82
2022/07/19 15:51:56;;;;;;;;;;;33.60;51.10;;;;;;5002125;28;19928;-84
2022/07/19 15:54:23;;;;;;;;;;;33.60;51.70;;;;;;5013354;28;20015;-82
2022/07/19 15:56:50;;;;;;;;;;;33.70;51.20;;;;;;5047086;28;20287;-84
2022/07/19 15:59:16;;;;;;;;;;;33.70;51.20;;;;;;5017411;28;19935;-84
2022/07/19 16:01:42;;;;;;;;;;;33.70;51.00;;;;;;5010795;28;19964;-85
2022/07/19 16:04:10;;;;;;;;;;;33.60;51.10;;;;;;5012493;28;19964;-83
2022/07/19 16:06:37;;;;;;;;;;;33.60;51.10;;;;;;5013278;28;20342;-85
2022/07/19 16:09:04;;;;;;;;;;;33.60;51.30;;;;;;5013066;28;19964;-84
2022/07/19 16:11:30;;;;;;;;;;;33.50;52.00;;;;;;5049742;28;19928;-84
2022/07/19 16:13:56;;;;;;;;;;;33.50;51.90;;;;;;5020780;28;20405;-81
2022/07/19 16:16:28;;;;;;;;;;;33.50;52.40;;;;;;5016191;28;19925;-83
2022/07/19 16:18:54;;;;;;;;;;;33.50;52.70;;;;;;5021048;28;20081;-83
2022/07/19 16:21:21;;;;;;;;;;;33.50;53.10;;;;;;5032127;28;19933;-85
2022/07/19 16:24:08;;;;;;;;;;;33.50;53.50;;;;;;5006759;28;19936;-85
2022/07/19 16:26:37;;;;;;;;;;;33.50;52.40;;;;;;5024654;28;19979;-85
2022/07/19 16:29:05;;;;;;;;;;;33.40;52.70;;;;;;5035788;28;20270;-83
2022/07/19 16:31:31;;;;;;;;;;;33.40;53.00;;;;;;5024839;28;19932;-84
2022/07/19 16:33:57;;;;;;;;;;;33.30;53.40;;;;;;5023974;28;19921;-84
2022/07/19 16:36:25;;;;;;;;;;;33.30;53.90;;;;;;5033214;28;19931;-83
2022/07/19 16:38:51;;;;;;;;;;;33.20;54.20;;;;;;5015319;28;20058;-82
2022/07/19 16:41:19;;;;;;;;;;;33.20;55.00;;;;;;4997657;28;19929;-84
2022/07/19 16:43:47;;;;;;;;;;;33.20;55.00;;;;;;5011421;28;19929;-79
2022/07/19 16:46:13;;;;;;;;;;;33.10;54.90;;;;;;5017884;28;19982;-83
2022/07/19 16:48:39;;;;;;;;;;;33.10;55.30;;;;;;5048976;28;19933;-81
2022/07/19 16:51:04;;;;;;;;;;;33.00;55.70;;;;;;5004144;28;20294;-83
2022/07/19 16:53:30;;;;;;;;;;;32.90;56.00;;;;;;5037766;28;20011;-83
2022/07/19 16:55:56;;;;;;;;;;;33.00;56.00;;;;;;5023350;28;19925;-83
2022/07/19 17:01:28;;;;;;;;;;;32.90;55.60;;;;;;5036620;28;19932;-82
2022/07/19 17:03:53;;;;;;;;;;;32.80;56.50;;;;;;5036685;28;19987;-88
2022/07/19 17:06:20;;;;;;;;;;;32.80;57.10;;;;;;5038448;28;20785;-84
2022/07/19 17:08:46;;;;;;;;;;;32.80;57.00;;;;;;5026266;28;19929;-84
2022/07/19 17:11:12;;;;;;;;;;;32.70;56.90;;;;;;5031719;28;19925;-84
2022/07/19 17:13:38;;;;;;;;;;;32.70;57.10;;;;;;5039752;28;20004;-84
2022/07/19 17:16:09;;;;;;;;;;;32.50;57.10;;;;;;5029336;28;20637;-86
2022/07/19 17:18:59;;;;;;;;;;;32.60;56.80;;;;;;5030376;28;20430;-85
2022/07/19 17:21:25;;;;;;;;;;;32.60;57.10;;;;;;5018789;28;20437;-83
2022/07/19 17:23:51;;;;;;;;;;;32.60;57.50;;;;;;5038954;28;19943;-84
2022/07/19 17:26:17;;;;;;;;;;;32.50;58.10;;;;;;5032450;28;20299;-82
2022/07/19 17:28:43;;;;;;;;;;;32.50;59.30;;;;;;5016168;28;20382;-83
2022/07/19 17:31:09;;;;;;;;;;;32.40;60.80;;;;;;5018088;28;19996;-84
2022/07/19 17:33:35;;;;;;;;;;;32.30;61.40;;;;;;5037674;28;19925;-84
2022/07/19 17:36:01;;;;;;;;;;;32.30;60.90;;;;;;5016264;28;19935;-83
2022/07/19 17:38:28;;;;;;;;;;;32.20;62.00;;;;;;5038890;28;20024;-84
2022/07/19 17:40:54;;;;;;;;;;;32.10;62.70;;;;;;5015190;28;20268;-88
2022/07/19 17:46:24;;;;;;;;;;;32.10;61.90;;;;;;5043263;28;20327;-82
2022/07/19 17:48:50;;;;;;;;;;;32.00;61.60;;;;;;5043442;28;19933;-84
2022/07/19 17:51:17;;;;;;;;;;;32.00;61.90;;;;;;5041930;28;20394;-81
2022/07/19 17:56:57;;;;;;;;;;;31.80;61.30;;;;;;5113086;22;20352;-80
2022/07/19 18:02:31;;;;;;;;;;;31.60;61.30;;;;;;5071053;28;19984;-82
2022/07/19 18:04:57;;;;;;;;;;;31.50;61.80;;;;;;5069196;28;19972;-83
2022/07/19 18:07:24;;;;;;;;;;;31.40;61.90;;;;;;5071832;28;19973;-84
2022/07/19 18:09:51;;;;;;;;;;;31.40;61.90;;;;;;5071070;28;20361;-85
2022/07/19 18:12:17;;;;;;;;;;;31.30;61.60;;;;;;5070269;28;20037;-91
2022/07/19 18:14:44;;;;;;;;;;;31.30;61.80;;;;;;5050650;28;19971;-86